sensor_id;sensor_type;location;lat;lon;timestamp;P1;durP1;ratioP1;P2;durP2;ratioP2
72284;SDS011;60220;53.552;10.092;2023-02-05T00:02:20;4.47;;;2.90;;
72284;SDS011;60220;53.552;10.092;2023-02-05T00:04:47;3.92;;;2.38;;
72284;SDS011;60220;53.552;10.092;2023-02-05T00:07:13;4.55;;;2.50;;
72284;SDS011;60220;53.552;10.092;2023-02-05T00:09:39;3.85;;;2.15;;
72284;SDS011;60220;53.552;10.092;2023-02-05T00:12:07;6.13;;;2.78;;
72284;SDS011;60220;53.552;10.092;2023-02-05T00:14:33;7.43;;;3.30;;
72284;SDS011;60220;53.552;10.092;2023-02-05T00:16:59;4.45;;;2.38;;
72284;SDS011;60220;53.552;10.092;2023-02-05T00:19:26;3.25;;;2.30;;
72284;SDS011;60220;53.552;10.092;2023-02-05T00:21:52;4.40;;;2.22;;
72284;SDS011;60220;53.552;10.092;2023-02-05T00:24:18;4.13;;;2.22;;
72284;SDS011;60220;53.552;10.092;2023-02-05T00:26:46;4.43;;;2.03;;
72284;SDS011;60220;53.552;10.092;2023-02-05T00:29:12;10.15;;;2.65;;
72284;SDS011;60220;53.552;10.092;2023-02-05T00:31:41;2.95;;;2.05;;
72284;SDS011;60220;53.552;10.092;2023-02-05T00:34:06;5.13;;;2.30;;
72284;SDS011;60220;53.552;10.092;2023-02-05T00:36:32;3.78;;;2.00;;
72284;SDS011;60220;53.552;10.092;2023-02-05T00:38:59;3.97;;;2.17;;
72284;SDS011;60220;53.552;10.092;2023-02-05T00:41:25;2.85;;;2.03;;
72284;SDS011;60220;53.552;10.092;2023-02-05T00:43:51;5.63;;;2.03;;
72284;SDS011;60220;53.552;10.092;2023-02-05T00:46:17;4.70;;;2.08;;
72284;SDS011;60220;53.552;10.092;2023-02-05T00:48:43;4.72;;;2.55;;
72284;SDS011;60220;53.552;10.092;2023-02-05T00:51:09;6.60;;;2.25;;
72284;SDS011;60220;53.552;10.092;2023-02-05T00:53:36;3.50;;;2.03;;
72284;SDS011;60220;53.552;10.092;2023-02-05T00:56:05;4.10;;;2.28;;
72284;SDS011;60220;53.552;10.092;2023-02-05T00:58:31;4.18;;;1.80;;
72284;SDS011;60220;53.552;10.092;2023-02-05T01:00:57;9.10;;;2.25;;
72284;SDS011;60220;53.552;10.092;2023-02-05T01:03:26;4.22;;;2.15;;
72284;SDS011;60220;53.552;10.092;2023-02-05T01:05:52;8.55;;;2.05;;
72284;SDS011;60220;53.552;10.092;2023-02-05T01:08:17;2.92;;;1.90;;
72284;SDS011;60220;53.552;10.092;2023-02-05T01:10:44;4.80;;;1.90;;
72284;SDS011;60220;53.552;10.092;2023-02-05T01:13:13;6.13;;;2.05;;
72284;SDS011;60220;53.552;10.092;2023-02-05T01:15:39;3.35;;;1.88;;
72284;SDS011;60220;53.552;10.092;2023-02-05T01:18:05;5.72;;;2.28;;
72284;SDS011;60220;53.552;10.092;2023-02-05T01:20:32;3.78;;;2.08;;
72284;SDS011;60220;53.552;10.092;2023-02-05T01:23:04;2.72;;;1.67;;
72284;SDS011;60220;53.552;10.092;2023-02-05T01:25:30;4.88;;;2.33;;
72284;SDS011;60220;53.552;10.092;2023-02-05T01:27:56;3.63;;;2.08;;
72284;SDS011;60220;53.552;10.092;2023-02-05T01:30:22;5.63;;;1.90;;
72284;SDS011;60220;53.552;10.092;2023-02-05T01:32:51;3.42;;;2.15;;
72284;SDS011;60220;53.552;10.092;2023-02-05T01:35:17;3.97;;;2.05;;
72284;SDS011;60220;53.552;10.092;2023-02-05T01:37:43;2.65;;;1.40;;
72284;SDS011;60220;53.552;10.092;2023-02-05T01:40:10;3.65;;;1.92;;
72284;SDS011;60220;53.552;10.092;2023-02-05T01:42:39;4.53;;;1.60;;
72284;SDS011;60220;53.552;10.092;2023-02-05T01:48:08;4.80;;;1.95;;
72284;SDS011;60220;53.552;10.092;2023-02-05T01:50:35;3.28;;;2.15;;
72284;SDS011;60220;53.552;10.092;2023-02-05T01:53:07;2.80;;;1.75;;
72284;SDS011;60220;53.552;10.092;2023-02-05T01:55:34;3.00;;;1.38;;
72284;SDS011;60220;53.552;10.092;2023-02-05T01:58:11;6.55;;;1.88;;
72284;SDS011;60220;53.552;10.092;2023-02-05T02:00:38;3.83;;;1.42;;
72284;SDS011;60220;53.552;10.092;2023-02-05T02:03:04;2.40;;;1.70;;
72284;SDS011;60220;53.552;10.092;2023-02-05T02:05:31;5.18;;;2.17;;
72284;SDS011;60220;53.552;10.092;2023-02-05T02:07:59;3.08;;;1.90;;
72284;SDS011;60220;53.552;10.092;2023-02-05T02:10:25;3.47;;;1.88;;
72284;SDS011;60220;53.552;10.092;2023-02-05T02:12:53;2.70;;;1.52;;
72284;SDS011;60220;53.552;10.092;2023-02-05T02:15:21;3.83;;;1.73;;
72284;SDS011;60220;53.552;10.092;2023-02-05T02:17:51;5.18;;;2.00;;
72284;SDS011;60220;53.552;10.092;2023-02-05T02:20:20;4.88;;;1.80;;
72284;SDS011;60220;53.552;10.092;2023-02-05T02:23:03;2.30;;;1.50;;
72284;SDS011;60220;53.552;10.092;2023-02-05T02:25:57;6.28;;;2.10;;
72284;SDS011;60220;53.552;10.092;2023-02-05T02:28:41;5.45;;;1.90;;
72284;SDS011;60220;53.552;10.092;2023-02-05T02:31:11;3.28;;;2.05;;
72284;SDS011;60220;53.552;10.092;2023-02-05T02:33:46;4.30;;;1.73;;
72284;SDS011;60220;53.552;10.092;2023-02-05T02:36:18;4.03;;;1.48;;
72284;SDS011;60220;53.552;10.092;2023-02-05T02:38:53;4.10;;;1.50;;
72284;SDS011;60220;53.552;10.092;2023-02-05T02:41:28;2.38;;;1.90;;
72284;SDS011;60220;53.552;10.092;2023-02-05T02:43:58;2.90;;;1.42;;
72284;SDS011;60220;53.552;10.092;2023-02-05T02:46:34;4.40;;;1.90;;
72284;SDS011;60220;53.552;10.092;2023-02-05T02:49:07;3.92;;;1.70;;
72284;SDS011;60220;53.552;10.092;2023-02-05T02:52:03;6.30;;;1.55;;
72284;SDS011;60220;53.552;10.092;2023-02-05T02:54:31;3.85;;;1.70;;
72284;SDS011;60220;53.552;10.092;2023-02-05T02:56:59;1.75;;;1.10;;
72284;SDS011;60220;53.552;10.092;2023-02-05T02:59:28;4.57;;;1.67;;
72284;SDS011;60220;53.552;10.092;2023-02-05T03:01:59;6.65;;;1.52;;
72284;SDS011;60220;53.552;10.092;2023-02-05T03:04:30;6.40;;;1.80;;
72284;SDS011;60220;53.552;10.092;2023-02-05T03:07:00;7.70;;;2.00;;
72284;SDS011;60220;53.552;10.092;2023-02-05T03:09:31;4.53;;;2.00;;
72284;SDS011;60220;53.552;10.092;2023-02-05T03:12:03;2.63;;;2.07;;
72284;SDS011;60220;53.552;10.092;2023-02-05T03:14:31;5.40;;;2.03;;
72284;SDS011;60220;53.552;10.092;2023-02-05T03:16:58;2.63;;;1.75;;
72284;SDS011;60220;53.552;10.092;2023-02-05T03:19:26;3.67;;;2.20;;
72284;SDS011;60220;53.552;10.092;2023-02-05T03:21:56;2.28;;;1.83;;
72284;SDS011;60220;53.552;10.092;2023-02-05T03:24:25;2.03;;;1.60;;
72284;SDS011;60220;53.552;10.092;2023-02-05T03:26:54;2.22;;;1.52;;
72284;SDS011;60220;53.552;10.092;2023-02-05T03:29:23;3.60;;;2.00;;
72284;SDS011;60220;53.552;10.092;2023-02-05T03:31:56;5.13;;;2.50;;
72284;SDS011;60220;53.552;10.092;2023-02-05T03:34:30;3.80;;;1.80;;
72284;SDS011;60220;53.552;10.092;2023-02-05T03:37:17;3.70;;;1.65;;
72284;SDS011;60220;53.552;10.092;2023-02-05T03:40:00;3.90;;;1.50;;
72284;SDS011;60220;53.552;10.092;2023-02-05T03:45:05;3.08;;;1.70;;
72284;SDS011;60220;53.552;10.092;2023-02-05T03:47:43;3.83;;;1.90;;
72284;SDS011;60220;53.552;10.092;2023-02-05T03:50:21;2.13;;;1.88;;
72284;SDS011;60220;53.552;10.092;2023-02-05T03:52:54;5.18;;;2.05;;
72284;SDS011;60220;53.552;10.092;2023-02-05T03:55:28;6.43;;;2.03;;
72284;SDS011;60220;53.552;10.092;2023-02-05T03:57:58;3.72;;;1.58;;
72284;SDS011;60220;53.552;10.092;2023-02-05T04:00:27;4.40;;;2.28;;
72284;SDS011;60220;53.552;10.092;2023-02-05T04:02:54;5.43;;;1.60;;
72284;SDS011;60220;53.552;10.092;2023-02-05T04:05:20;5.47;;;2.17;;
72284;SDS011;60220;53.552;10.092;2023-02-05T04:07:47;3.65;;;1.60;;
72284;SDS011;60220;53.552;10.092;2023-02-05T04:10:13;3.72;;;1.90;;
72284;SDS011;60220;53.552;10.092;2023-02-05T04:12:39;3.30;;;1.80;;
72284;SDS011;60220;53.552;10.092;2023-02-05T04:15:05;6.72;;;1.83;;
72284;SDS011;60220;53.552;10.092;2023-02-05T04:17:33;3.80;;;2.10;;
72284;SDS011;60220;53.552;10.092;2023-02-05T04:19:59;2.95;;;1.85;;
72284;SDS011;60220;53.552;10.092;2023-02-05T04:22:25;2.90;;;1.70;;
72284;SDS011;60220;53.552;10.092;2023-02-05T04:24:53;2.72;;;1.67;;
72284;SDS011;60220;53.552;10.092;2023-02-05T04:27:19;2.97;;;1.75;;
72284;SDS011;60220;53.552;10.092;2023-02-05T04:29:45;4.97;;;1.80;;
72284;SDS011;60220;53.552;10.092;2023-02-05T04:32:13;2.90;;;1.67;;
72284;SDS011;60220;53.552;10.092;2023-02-05T04:34:39;2.40;;;1.85;;
72284;SDS011;60220;53.552;10.092;2023-02-05T04:37:05;5.55;;;2.05;;
72284;SDS011;60220;53.552;10.092;2023-02-05T04:39:32;8.43;;;2.60;;
72284;SDS011;60220;53.552;10.092;2023-02-05T04:41:58;3.33;;;1.80;;
72284;SDS011;60220;53.552;10.092;2023-02-05T04:44:27;4.15;;;2.03;;
72284;SDS011;60220;53.552;10.092;2023-02-05T04:46:56;5.70;;;1.85;;
72284;SDS011;60220;53.552;10.092;2023-02-05T04:49:24;3.55;;;1.90;;
72284;SDS011;60220;53.552;10.092;2023-02-05T04:51:50;4.25;;;2.25;;
72284;SDS011;60220;53.552;10.092;2023-02-05T04:54:17;5.28;;;2.50;;
72284;SDS011;60220;53.552;10.092;2023-02-05T04:56:43;3.55;;;2.22;;
72284;SDS011;60220;53.552;10.092;2023-02-05T04:59:09;4.15;;;2.08;;
72284;SDS011;60220;53.552;10.092;2023-02-05T05:01:37;3.72;;;1.80;;
72284;SDS011;60220;53.552;10.092;2023-02-05T05:04:04;2.65;;;1.70;;
72284;SDS011;60220;53.552;10.092;2023-02-05T05:06:32;3.58;;;2.28;;
72284;SDS011;60220;53.552;10.092;2023-02-05T05:08:58;4.75;;;2.10;;
72284;SDS011;60220;53.552;10.092;2023-02-05T05:11:25;2.38;;;1.80;;
72284;SDS011;60220;53.552;10.092;2023-02-05T05:13:51;2.45;;;1.67;;
72284;SDS011;60220;53.552;10.092;2023-02-05T05:16:17;2.72;;;1.80;;
72284;SDS011;60220;53.552;10.092;2023-02-05T05:18:43;3.05;;;2.10;;
72284;SDS011;60220;53.552;10.092;2023-02-05T05:21:10;4.05;;;2.45;;
72284;SDS011;60220;53.552;10.092;2023-02-05T05:23:36;5.65;;;2.33;;
72284;SDS011;60220;53.552;10.092;2023-02-05T05:26:03;3.55;;;2.42;;
72284;SDS011;60220;53.552;10.092;2023-02-05T05:28:31;4.05;;;1.90;;
72284;SDS011;60220;53.552;10.092;2023-02-05T05:30:58;4.20;;;2.35;;
72284;SDS011;60220;53.552;10.092;2023-02-05T05:33:26;6.75;;;2.20;;
72284;SDS011;60220;53.552;10.092;2023-02-05T05:35:51;2.75;;;1.90;;
72284;SDS011;60220;53.552;10.092;2023-02-05T05:38:17;4.95;;;2.40;;
72284;SDS011;60220;53.552;10.092;2023-02-05T05:40:43;3.83;;;2.58;;
72284;SDS011;60220;53.552;10.092;2023-02-05T05:43:27;3.10;;;2.08;;
72284;SDS011;60220;53.552;10.092;2023-02-05T05:46:12;2.78;;;2.03;;
72284;SDS011;60220;53.552;10.092;2023-02-05T05:48:41;3.85;;;2.05;;
72284;SDS011;60220;53.552;10.092;2023-02-05T05:51:07;3.28;;;1.73;;
72284;SDS011;60220;53.552;10.092;2023-02-05T05:53:33;4.63;;;2.30;;
72284;SDS011;60220;53.552;10.092;2023-02-05T05:55:59;5.80;;;2.45;;
72284;SDS011;60220;53.552;10.092;2023-02-05T05:58:25;6.63;;;2.67;;
72284;SDS011;60220;53.552;10.092;2023-02-05T06:00:51;3.13;;;1.92;;
72284;SDS011;60220;53.552;10.092;2023-02-05T06:03:19;3.08;;;1.85;;
72284;SDS011;60220;53.552;10.092;2023-02-05T06:05:46;5.80;;;2.40;;
72284;SDS011;60220;53.552;10.092;2023-02-05T06:08:12;3.13;;;2.10;;
72284;SDS011;60220;53.552;10.092;2023-02-05T06:10:42;4.65;;;2.50;;
72284;SDS011;60220;53.552;10.092;2023-02-05T06:13:08;3.80;;;2.40;;
72284;SDS011;60220;53.552;10.092;2023-02-05T06:15:34;4.57;;;2.45;;
72284;SDS011;60220;53.552;10.092;2023-02-05T06:18:00;6.32;;;2.50;;
72284;SDS011;60220;53.552;10.092;2023-02-05T06:20:29;6.43;;;2.22;;
72284;SDS011;60220;53.552;10.092;2023-02-05T06:22:55;4.07;;;2.50;;
72284;SDS011;60220;53.552;10.092;2023-02-05T06:25:23;3.97;;;2.13;;
72284;SDS011;60220;53.552;10.092;2023-02-05T06:27:52;6.32;;;2.47;;
72284;SDS011;60220;53.552;10.092;2023-02-05T06:30:18;4.15;;;2.25;;
72284;SDS011;60220;53.552;10.092;2023-02-05T06:32:44;5.15;;;2.00;;
72284;SDS011;60220;53.552;10.092;2023-02-05T06:35:10;3.53;;;2.30;;
72284;SDS011;60220;53.552;10.092;2023-02-05T06:37:36;2.85;;;2.08;;
72284;SDS011;60220;53.552;10.092;2023-02-05T06:40:03;2.90;;;2.15;;
72284;SDS011;60220;53.552;10.092;2023-02-05T06:42:29;3.22;;;2.55;;
72284;SDS011;60220;53.552;10.092;2023-02-05T06:44:55;4.22;;;2.38;;
72284;SDS011;60220;53.552;10.092;2023-02-05T06:47:21;2.70;;;2.20;;
72284;SDS011;60220;53.552;10.092;2023-02-05T06:49:47;6.18;;;2.58;;
72284;SDS011;60220;53.552;10.092;2023-02-05T06:52:13;3.38;;;2.15;;
72284;SDS011;60220;53.552;10.092;2023-02-05T06:54:42;4.15;;;2.15;;
72284;SDS011;60220;53.552;10.092;2023-02-05T06:57:09;7.65;;;2.33;;
72284;SDS011;60220;53.552;10.092;2023-02-05T06:59:35;5.68;;;2.60;;
72284;SDS011;60220;53.552;10.092;2023-02-05T07:02:01;4.72;;;2.42;;
72284;SDS011;60220;53.552;10.092;2023-02-05T07:04:27;4.90;;;2.47;;
72284;SDS011;60220;53.552;10.092;2023-02-05T07:06:55;7.97;;;2.90;;
72284;SDS011;60220;53.552;10.092;2023-02-05T07:09:21;3.80;;;2.42;;
72284;SDS011;60220;53.552;10.092;2023-02-05T07:11:48;5.78;;;2.50;;
72284;SDS011;60220;53.552;10.092;2023-02-05T07:14:14;8.65;;;2.35;;
72284;SDS011;60220;53.552;10.092;2023-02-05T07:16:40;3.65;;;2.50;;
72284;SDS011;60220;53.552;10.092;2023-02-05T07:19:08;4.35;;;2.45;;
72284;SDS011;60220;53.552;10.092;2023-02-05T07:21:37;5.82;;;2.53;;
72284;SDS011;60220;53.552;10.092;2023-02-05T07:24:03;6.32;;;2.90;;
72284;SDS011;60220;53.552;10.092;2023-02-05T07:26:29;4.82;;;2.60;;
72284;SDS011;60220;53.552;10.092;2023-02-05T07:28:56;6.80;;;2.60;;
72284;SDS011;60220;53.552;10.092;2023-02-05T07:31:24;4.82;;;2.78;;
72284;SDS011;60220;53.552;10.092;2023-02-05T07:33:52;4.70;;;2.60;;
72284;SDS011;60220;53.552;10.092;2023-02-05T07:36:19;6.53;;;2.90;;
72284;SDS011;60220;53.552;10.092;2023-02-05T07:38:45;6.28;;;3.00;;
72284;SDS011;60220;53.552;10.092;2023-02-05T07:41:12;8.52;;;3.25;;
72284;SDS011;60220;53.552;10.092;2023-02-05T07:43:39;5.32;;;2.40;;
72284;SDS011;60220;53.552;10.092;2023-02-05T07:46:06;6.10;;;2.80;;
72284;SDS011;60220;53.552;10.092;2023-02-05T07:48:34;4.68;;;2.50;;
72284;SDS011;60220;53.552;10.092;2023-02-05T07:51:03;3.80;;;2.20;;
72284;SDS011;60220;53.552;10.092;2023-02-05T07:53:29;4.82;;;2.60;;
72284;SDS011;60220;53.552;10.092;2023-02-05T07:55:55;7.93;;;3.50;;
72284;SDS011;60220;53.552;10.092;2023-02-05T07:58:22;4.13;;;2.60;;
72284;SDS011;60220;53.552;10.092;2023-02-05T08:00:50;5.10;;;3.00;;
72284;SDS011;60220;53.552;10.092;2023-02-05T08:03:16;3.30;;;2.90;;
72284;SDS011;60220;53.552;10.092;2023-02-05T08:05:42;4.70;;;2.90;;
72284;SDS011;60220;53.552;10.092;2023-02-05T08:08:08;7.53;;;3.47;;
72284;SDS011;60220;53.552;10.092;2023-02-05T08:10:36;4.05;;;2.95;;
72284;SDS011;60220;53.552;10.092;2023-02-05T08:13:02;7.25;;;3.22;;
72284;SDS011;60220;53.552;10.092;2023-02-05T08:15:29;4.75;;;3.22;;
72284;SDS011;60220;53.552;10.092;2023-02-05T08:17:57;7.28;;;3.20;;
72284;SDS011;60220;53.552;10.092;2023-02-05T08:20:24;10.27;;;2.92;;
72284;SDS011;60220;53.552;10.092;2023-02-05T08:22:52;8.05;;;2.97;;
72284;SDS011;60220;53.552;10.092;2023-02-05T08:25:20;6.72;;;2.97;;
72284;SDS011;60220;53.552;10.092;2023-02-05T08:27:49;8.55;;;3.42;;
72284;SDS011;60220;53.552;10.092;2023-02-05T08:30:16;4.55;;;2.92;;
72284;SDS011;60220;53.552;10.092;2023-02-05T08:32:45;5.18;;;2.83;;
72284;SDS011;60220;53.552;10.092;2023-02-05T08:35:12;6.28;;;3.20;;
72284;SDS011;60220;53.552;10.092;2023-02-05T08:37:38;6.05;;;3.42;;
72284;SDS011;60220;53.552;10.092;2023-02-05T08:40:05;7.22;;;3.30;;
72284;SDS011;60220;53.552;10.092;2023-02-05T08:42:31;5.55;;;2.92;;
72284;SDS011;60220;53.552;10.092;2023-02-05T08:45:00;3.45;;;2.63;;
72284;SDS011;60220;53.552;10.092;2023-02-05T08:47:27;10.05;;;3.72;;
72284;SDS011;60220;53.552;10.092;2023-02-05T08:49:55;6.28;;;2.80;;
72284;SDS011;60220;53.552;10.092;2023-02-05T08:52:21;8.02;;;2.55;;
72284;SDS011;60220;53.552;10.092;2023-02-05T08:54:50;6.88;;;3.10;;
72284;SDS011;60220;53.552;10.092;2023-02-05T08:57:16;6.97;;;3.28;;
72284;SDS011;60220;53.552;10.092;2023-02-05T08:59:45;5.53;;;2.72;;
72284;SDS011;60220;53.552;10.092;2023-02-05T09:02:12;5.75;;;3.35;;
72284;SDS011;60220;53.552;10.092;2023-02-05T09:04:39;4.18;;;2.80;;
72284;SDS011;60220;53.552;10.092;2023-02-05T09:07:05;10.60;;;3.38;;
72284;SDS011;60220;53.552;10.092;2023-02-05T09:09:33;4.88;;;2.83;;
72284;SDS011;60220;53.552;10.092;2023-02-05T09:12:01;6.63;;;3.42;;
72284;SDS011;60220;53.552;10.092;2023-02-05T09:14:30;4.78;;;3.05;;
72284;SDS011;60220;53.552;10.092;2023-02-05T09:17:00;5.63;;;2.50;;
72284;SDS011;60220;53.552;10.092;2023-02-05T09:19:26;7.20;;;3.42;;
72284;SDS011;60220;53.552;10.092;2023-02-05T09:21:55;10.10;;;3.80;;
72284;SDS011;60220;53.552;10.092;2023-02-05T09:24:21;5.05;;;2.90;;
72284;SDS011;60220;53.552;10.092;2023-02-05T09:26:47;5.22;;;3.28;;
72284;SDS011;60220;53.552;10.092;2023-02-05T09:29:14;4.93;;;3.22;;
72284;SDS011;60220;53.552;10.092;2023-02-05T09:31:40;9.77;;;3.28;;
72284;SDS011;60220;53.552;10.092;2023-02-05T09:34:08;8.07;;;3.47;;
72284;SDS011;60220;53.552;10.092;2023-02-05T09:36:36;6.32;;;2.65;;
72284;SDS011;60220;53.552;10.092;2023-02-05T09:39:03;6.53;;;3.42;;
72284;SDS011;60220;53.552;10.092;2023-02-05T09:41:29;5.85;;;3.00;;
72284;SDS011;60220;53.552;10.092;2023-02-05T09:44:04;5.80;;;2.70;;
72284;SDS011;60220;53.552;10.092;2023-02-05T09:46:40;5.53;;;2.72;;
72284;SDS011;60220;53.552;10.092;2023-02-05T09:49:12;5.88;;;3.42;;
72284;SDS011;60220;53.552;10.092;2023-02-05T09:51:45;7.20;;;3.58;;
72284;SDS011;60220;53.552;10.092;2023-02-05T09:54:15;10.38;;;6.63;;
72284;SDS011;60220;53.552;10.092;2023-02-05T09:56:45;6.43;;;3.50;;
72284;SDS011;60220;53.552;10.092;2023-02-05T09:59:15;9.63;;;3.03;;
72284;SDS011;60220;53.552;10.092;2023-02-05T10:01:47;4.25;;;2.97;;
72284;SDS011;60220;53.552;10.092;2023-02-05T10:04:16;6.20;;;3.30;;
72284;SDS011;60220;53.552;10.092;2023-02-05T10:06:46;6.82;;;3.10;;
72284;SDS011;60220;53.552;10.092;2023-02-05T10:12:39;12.15;;;7.28;;
72284;SDS011;60220;53.552;10.092;2023-02-05T10:15:22;7.63;;;5.10;;
72284;SDS011;60220;53.552;10.092;2023-02-05T10:18:01;7.28;;;3.55;;
72284;SDS011;60220;53.552;10.092;2023-02-05T10:20:41;710.42;;;391.77;;
72284;SDS011;60220;53.552;10.092;2023-02-05T10:23:17;1980.75;;;896.70;;
72284;SDS011;60220;53.552;10.092;2023-02-05T10:26:03;632.42;;;433.70;;
72284;SDS011;60220;53.552;10.092;2023-02-05T10:28:47;327.75;;;123.38;;
72284;SDS011;60220;53.552;10.092;2023-02-05T10:31:26;6.72;;;3.10;;
72284;SDS011;60220;53.552;10.092;2023-02-05T10:34:05;6.82;;;2.92;;
72284;SDS011;60220;53.552;10.092;2023-02-05T10:36:41;7.88;;;3.50;;
72284;SDS011;60220;53.552;10.092;2023-02-05T10:39:09;5.15;;;2.92;;
72284;SDS011;60220;53.552;10.092;2023-02-05T10:41:39;4.75;;;3.25;;
72284;SDS011;60220;53.552;10.092;2023-02-05T10:44:10;4.72;;;2.83;;
72284;SDS011;60220;53.552;10.092;2023-02-05T10:46:39;10.27;;;3.63;;
72284;SDS011;60220;53.552;10.092;2023-02-05T10:49:09;6.75;;;2.97;;
72284;SDS011;60220;53.552;10.092;2023-02-05T10:51:40;5.18;;;3.10;;
72284;SDS011;60220;53.552;10.092;2023-02-05T10:54:13;7.55;;;2.97;;
72284;SDS011;60220;53.552;10.092;2023-02-05T10:56:43;6.20;;;3.00;;
72284;SDS011;60220;53.552;10.092;2023-02-05T10:59:12;4.43;;;2.88;;
72284;SDS011;60220;53.552;10.092;2023-02-05T11:01:44;6.95;;;3.45;;
72284;SDS011;60220;53.552;10.092;2023-02-05T11:04:12;6.47;;;3.55;;
72284;SDS011;60220;53.552;10.092;2023-02-05T11:06:43;5.72;;;2.92;;
72284;SDS011;60220;53.552;10.092;2023-02-05T11:09:27;9.48;;;3.65;;
72284;SDS011;60220;53.552;10.092;2023-02-05T11:11:56;8.25;;;2.88;;
72284;SDS011;60220;53.552;10.092;2023-02-05T11:14:24;4.75;;;3.10;;
72284;SDS011;60220;53.552;10.092;2023-02-05T11:16:55;11.60;;;3.58;;
72284;SDS011;60220;53.552;10.092;2023-02-05T11:19:23;5.03;;;2.95;;
72284;SDS011;60220;53.552;10.092;2023-02-05T11:21:52;6.55;;;3.38;;
72284;SDS011;60220;53.552;10.092;2023-02-05T11:24:24;5.82;;;3.00;;
72284;SDS011;60220;53.552;10.092;2023-02-05T11:29:51;4.57;;;2.80;;
72284;SDS011;60220;53.552;10.092;2023-02-05T11:32:18;5.80;;;3.10;;
72284;SDS011;60220;53.552;10.092;2023-02-05T11:34:47;5.75;;;3.53;;
72284;SDS011;60220;53.552;10.092;2023-02-05T11:37:14;4.20;;;2.95;;
72284;SDS011;60220;53.552;10.092;2023-02-05T11:39:44;13.60;;;6.43;;
72284;SDS011;60220;53.552;10.092;2023-02-05T11:42:18;9.10;;;3.33;;
72284;SDS011;60220;53.552;10.092;2023-02-05T11:44:48;4.93;;;2.95;;
72284;SDS011;60220;53.552;10.092;2023-02-05T11:47:19;5.28;;;3.30;;
72284;SDS011;60220;53.552;10.092;2023-02-05T11:49:50;7.82;;;3.08;;
72284;SDS011;60220;53.552;10.092;2023-02-05T11:52:21;5.10;;;2.72;;
72284;SDS011;60220;53.552;10.092;2023-02-05T11:54:50;5.83;;;2.77;;
72284;SDS011;60220;53.552;10.092;2023-02-05T11:57:26;5.55;;;2.95;;
72284;SDS011;60220;53.552;10.092;2023-02-05T11:59:57;6.70;;;2.90;;
72284;SDS011;60220;53.552;10.092;2023-02-05T12:02:28;4.25;;;3.08;;
72284;SDS011;60220;53.552;10.092;2023-02-05T12:04:58;6.53;;;3.25;;
72284;SDS011;60220;53.552;10.092;2023-02-05T12:07:32;5.43;;;3.22;;
72284;SDS011;60220;53.552;10.092;2023-02-05T12:10:02;5.28;;;2.83;;
72284;SDS011;60220;53.552;10.092;2023-02-05T12:12:30;5.22;;;3.38;;
72284;SDS011;60220;53.552;10.092;2023-02-05T12:15:07;6.88;;;3.30;;
72284;SDS011;60220;53.552;10.092;2023-02-05T12:17:41;6.75;;;3.20;;
72284;SDS011;60220;53.552;10.092;2023-02-05T12:20:19;6.32;;;3.35;;
72284;SDS011;60220;53.552;10.092;2023-02-05T12:22:55;5.05;;;3.40;;
72284;SDS011;60220;53.552;10.092;2023-02-05T12:25:44;6.00;;;3.15;;
72284;SDS011;60220;53.552;10.092;2023-02-05T12:28:24;5.53;;;3.33;;
72284;SDS011;60220;53.552;10.092;2023-02-05T12:31:00;6.63;;;3.42;;
72284;SDS011;60220;53.552;10.092;2023-02-05T12:33:50;6.70;;;3.72;;
72284;SDS011;60220;53.552;10.092;2023-02-05T12:36:38;5.63;;;2.75;;
72284;SDS011;60220;53.552;10.092;2023-02-05T12:39:28;5.72;;;3.00;;
72284;SDS011;60220;53.552;10.092;2023-02-05T12:42:03;6.13;;;3.17;;
72284;SDS011;60220;53.552;10.092;2023-02-05T12:44:42;8.57;;;3.78;;
72284;SDS011;60220;53.552;10.092;2023-02-05T12:47:23;4.10;;;3.00;;
72284;SDS011;60220;53.552;10.092;2023-02-05T12:50:07;5.50;;;3.10;;
72284;SDS011;60220;53.552;10.092;2023-02-05T12:52:48;11.38;;;3.50;;
72284;SDS011;60220;53.552;10.092;2023-02-05T12:55:33;4.78;;;2.92;;
72284;SDS011;60220;53.552;10.092;2023-02-05T12:58:12;5.43;;;3.40;;
72284;SDS011;60220;53.552;10.092;2023-02-05T13:00:42;8.10;;;3.40;;
72284;SDS011;60220;53.552;10.092;2023-02-05T13:03:15;10.43;;;4.22;;
72284;SDS011;60220;53.552;10.092;2023-02-05T13:05:48;13.10;;;4.22;;
72284;SDS011;60220;53.552;10.092;2023-02-05T13:08:19;8.25;;;3.58;;
72284;SDS011;60220;53.552;10.092;2023-02-05T13:10:50;7.78;;;3.60;;
72284;SDS011;60220;53.552;10.092;2023-02-05T13:13:21;4.47;;;3.13;;
72284;SDS011;60220;53.552;10.092;2023-02-05T13:15:55;5.72;;;3.17;;
72284;SDS011;60220;53.552;10.092;2023-02-05T13:18:26;4.40;;;3.13;;
72284;SDS011;60220;53.552;10.092;2023-02-05T13:20:56;7.68;;;3.20;;
72284;SDS011;60220;53.552;10.092;2023-02-05T13:23:46;7.90;;;3.40;;
72284;SDS011;60220;53.552;10.092;2023-02-05T13:26:33;6.43;;;3.38;;
72284;SDS011;60220;53.552;10.092;2023-02-05T13:29:22;5.78;;;3.60;;
72284;SDS011;60220;53.552;10.092;2023-02-05T13:31:53;9.02;;;3.47;;
72284;SDS011;60220;53.552;10.092;2023-02-05T13:34:22;10.20;;;3.63;;
72284;SDS011;60220;53.552;10.092;2023-02-05T13:42:57;5.25;;;2.85;;
72284;SDS011;60220;53.552;10.092;2023-02-05T13:48:41;6.25;;;3.58;;
72284;SDS011;60220;53.552;10.092;2023-02-05T13:51:48;7.40;;;3.15;;
72284;SDS011;60220;53.552;10.092;2023-02-05T13:54:48;7.13;;;3.60;;
72284;SDS011;60220;53.552;10.092;2023-02-05T13:57:42;9.57;;;4.03;;
72284;SDS011;60220;53.552;10.092;2023-02-05T14:00:30;7.72;;;3.70;;
72284;SDS011;60220;53.552;10.092;2023-02-05T14:02:57;5.45;;;3.65;;
72284;SDS011;60220;53.552;10.092;2023-02-05T14:05:30;8.48;;;4.03;;
72284;SDS011;60220;53.552;10.092;2023-02-05T14:07:58;7.45;;;3.95;;
72284;SDS011;60220;53.552;10.092;2023-02-05T14:10:27;5.82;;;4.15;;
72284;SDS011;60220;53.552;10.092;2023-02-05T14:13:07;4.78;;;3.20;;
72284;SDS011;60220;53.552;10.092;2023-02-05T14:15:37;7.80;;;3.72;;
72284;SDS011;60220;53.552;10.092;2023-02-05T14:18:08;5.90;;;3.28;;
72284;SDS011;60220;53.552;10.092;2023-02-05T14:20:37;5.00;;;3.30;;
72284;SDS011;60220;53.552;10.092;2023-02-05T14:23:13;5.80;;;3.58;;
72284;SDS011;60220;53.552;10.092;2023-02-05T14:28:36;7.97;;;3.80;;
72284;SDS011;60220;53.552;10.092;2023-02-05T14:31:08;5.50;;;3.60;;
72284;SDS011;60220;53.552;10.092;2023-02-05T14:37:21;8.00;;;3.92;;
72284;SDS011;60220;53.552;10.092;2023-02-05T14:39:50;8.45;;;3.90;;
72284;SDS011;60220;53.552;10.092;2023-02-05T14:42:18;5.10;;;3.75;;
72284;SDS011;60220;53.552;10.092;2023-02-05T14:44:45;7.82;;;4.15;;
72284;SDS011;60220;53.552;10.092;2023-02-05T14:47:21;7.32;;;3.67;;
72284;SDS011;60220;53.552;10.092;2023-02-05T14:49:50;11.30;;;5.70;;
72284;SDS011;60220;53.552;10.092;2023-02-05T14:52:25;8.15;;;4.78;;
72284;SDS011;60220;53.552;10.092;2023-02-05T14:54:54;9.25;;;5.18;;
72284;SDS011;60220;53.552;10.092;2023-02-05T14:57:25;9.18;;;4.38;;
72284;SDS011;60220;53.552;10.092;2023-02-05T14:59:58;7.53;;;3.45;;
72284;SDS011;60220;53.552;10.092;2023-02-05T15:05:17;6.63;;;3.83;;
72284;SDS011;60220;53.552;10.092;2023-02-05T15:07:46;82.20;;;40.65;;
72284;SDS011;60220;53.552;10.092;2023-02-05T15:10:18;7.90;;;4.75;;
72284;SDS011;60220;53.552;10.092;2023-02-05T15:12:53;6.82;;;4.07;;
72284;SDS011;60220;53.552;10.092;2023-02-05T15:15:28;5.97;;;4.03;;
72284;SDS011;60220;53.552;10.092;2023-02-05T15:18:01;8.95;;;4.10;;
72284;SDS011;60220;53.552;10.092;2023-02-05T15:20:30;6.97;;;4.35;;
72284;SDS011;60220;53.552;10.092;2023-02-05T15:23:03;8.13;;;4.03;;